Time;durP1;ratioP1;P1;durP2;ratioP2;P2;SDS_P1;SDS_P2;PMS_P1;PMS_P2;Temp;Humidity;BMP_temperature;BMP_pressure;BME280_temperature;BME280_humidity;BME280_pressure;Samples;Min_cycle;Max_cycle;Signal;HPM_P1;HPM_P2
2021/05/03 00:01:08;;;;;;;4.87;2.67;;;;;;;21.10;35.19;94112.61;828452;71;28436;-77
2021/05/03 00:16:08;;;;;;;5.03;2.50;;;;;;;20.91;34.80;94100.97;828514;71;29173;-77
2021/05/03 00:31:15;;;;;;;6.60;2.35;;;;;;;20.64;35.61;94108.80;834245;71;31784;-78
2021/05/03 00:46:23;;;;;;;3.42;2.12;;;;;;;20.58;35.82;94145.66;835361;71;31855;-79
2021/05/03 01:01:10;;;;;;;3.75;2.05;;;;;;;20.43;35.28;94151.91;829002;71;29220;-77
2021/05/03 01:16:14;;;;;;;2.95;2.22;;;;;;;20.28;35.41;94122.95;835166;71;31715;-78
2021/05/03 01:31:08;;;;;;;3.47;1.90;;;;;;;20.29;34.71;94132.47;834238;71;28358;-76
2021/05/03 01:46:10;;;;;;;3.27;2.02;;;;;;;20.28;34.71;94136.28;828444;71;29726;-79
2021/05/03 02:01:08;;;;;;;4.28;2.60;;;;;;;20.20;35.13;94163.37;828638;71;28786;-78
2021/05/03 02:16:18;;;;;;;2.15;2.00;;;;;;;20.19;35.29;94184.46;834349;71;31761;-78
2021/05/03 02:31:10;;;;;;;2.00;1.90;;;;;;;20.12;35.37;94181.12;828392;71;29755;-77
2021/05/03 02:46:12;;;;;;;3.35;2.50;;;;;;;20.01;35.76;94202.81;828367;71;31099;-80
2021/05/03 03:01:40;;;;;;;5.45;2.20;;;;;;;19.84;36.74;94239.23;834809;71;28841;-77
2021/05/03 03:16:09;;;;;;;2.75;2.55;;;;;;;19.57;37.27;94250.50;834497;71;28692;-78
2021/05/03 03:31:15;;;;;;;4.65;2.72;;;;;;;19.59;37.69;94279.44;827900;71;32662;-77
2021/05/03 03:46:20;;;;;;;4.42;2.70;;;;;;;19.15;37.95;94286.31;834994;71;31727;-77
2021/05/03 04:01:13;;;;;;;3.58;2.02;;;;;;;19.12;38.75;94308.27;828495;71;29244;-75
2021/05/03 04:31:15;;;;;;;3.37;2.62;;;;;;;20.58;36.93;94353.61;834690;71;32248;-76
2021/05/03 04:46:09;;;;;;;3.45;2.70;;;;;;;21.80;34.87;94371.51;829295;71;28624;-76
2021/05/03 05:01:18;;;;;;;7.35;2.90;;;;;;;21.69;34.99;94395.38;834867;71;32196;-76
2021/05/03 05:16:15;;;;;;;4.37;2.83;;;;;;;23.46;33.26;94404.70;819481;71;31668;-77
2021/05/03 05:31:14;;;;;;;9.90;2.90;;;;;;;25.43;32.54;94425.58;827500;71;31706;-77
2021/05/03 05:46:09;;;;;;;3.30;2.90;;;;;;;25.57;33.44;94431.52;821229;71;29303;-77
2021/05/03 06:01:14;;;;;;;3.50;2.70;;;;;;;26.38;33.65;94438.47;834785;71;31707;-80
2021/05/03 06:16:09;;;;;;;6.27;3.50;;;;;;;24.95;35.88;94442.77;834739;71;29308;-78
2021/05/03 06:31:09;;;;;;;4.93;4.13;;;;;;;24.38;38.61;94458.09;828320;71;29201;-77
2021/05/03 06:46:14;;;;;;;4.77;4.20;;;;;;;24.79;37.95;94451.17;834248;71;32239;-75
2021/05/03 07:01:15;;;;;;;5.67;3.80;;;;;;;25.10;37.58;94453.53;834020;71;30800;-78
2021/05/03 07:16:08;;;;;;;4.00;3.70;;;;;;;24.80;37.51;94442.56;834348;71;28313;-76
2021/05/03 07:31:14;;;;;;;8.60;7.80;;;;;;;25.35;36.67;94448.22;827776;71;33157;-78
2021/05/03 07:46:08;;;;;;;9.57;8.23;;;;;;;25.92;35.39;94448.78;834091;71;29687;-76
2021/05/03 08:01:14;;;;;;;5.37;4.97;;;;;;;26.28;34.21;94441.97;834175;71;32676;-82
2021/05/03 08:16:17;;;;;;;4.67;4.30;;;;;;;26.54;32.23;94443.38;827575;71;33074;-78
2021/05/03 08:31:08;;;;;;;5.63;5.13;;;;;;;26.81;34.04;94455.03;830163;71;29677;-79
2021/05/03 08:46:26;;;;;;;5.50;4.00;;;;;;;;;;834186;71;32749;-78
2021/05/03 09:01:48;;;;;;;4.10;3.70;;;;;;;27.86;31.07;94463.33;827771;71;31702;-78
2021/05/03 09:16:24;;;;;;;3.70;3.40;;;;;;;28.30;29.76;94454.23;834635;71;31754;-82
2021/05/03 09:31:10;;;;;;;6.00;3.60;;;;;;;28.38;29.87;94436.78;828918;71;29244;-77
2021/05/03 09:46:30;;;;;;;4.47;4.07;;;;;;;28.61;29.84;94446.17;834392;71;32003;-76
2021/05/03 10:01:16;;;;;;;5.00;4.03;;;;;;;28.25;30.29;94438.50;820324;71;32851;-75
2021/05/03 10:16:10;;;;;;;5.40;4.90;;;;;;;28.56;29.86;94440.05;828535;71;28701;-77
2021/05/03 10:31:14;;;;;;;4.67;4.27;;;;;;;28.33;28.91;94428.55;834289;71;31703;-76
2021/05/03 11:01:11;;;;;;;5.13;3.90;;;;;;;28.30;28.19;94416.45;828602;71;28254;-77
2021/05/03 11:16:33;;;;;;;6.03;3.30;;;;;;;28.65;27.45;94422.03;828515;71;30333;-79
2021/05/03 11:31:20;;;;;;;3.50;3.27;;;;;;;28.40;28.40;94434.44;834176;71;30827;-78
2021/05/03 11:46:26;;;;;;;3.30;2.97;;;;;;;28.42;27.52;94411.10;828064;71;32642;-79
2021/05/03 12:01:13;;;;;;;4.78;3.02;;;;;;;28.38;26.28;94395.70;823537;71;27845;-77
2021/05/03 12:16:09;;;;;;;3.50;3.20;;;;;;;28.07;26.30;94380.09;828693;71;30225;-77
2021/05/03 12:31:07;;;;;;;4.00;3.13;;;;;;;;;;833514;71;29476;-78
2021/05/03 12:46:16;;;;;;;7.73;3.90;;;;;;;;;;828784;71;31630;-78
2021/05/03 13:31:10;;;;;;;3.20;2.90;;;;;;;26.68;28.79;94392.19;828296;71;30284;-78
2021/05/03 13:46:16;;;;;;;3.40;3.10;;;;;;;26.38;29.45;94400.80;827586;71;32664;-79
2021/05/03 14:01:16;;;;;;;3.60;3.30;;;;;;;26.06;27.12;94398.98;818863;70;33240;-74
2021/05/03 14:16:09;;;;;;;3.17;2.80;;;;;;;25.33;26.65;94402.17;834326;71;30138;-76
2021/05/03 14:31:13;;;;;;;5.17;3.90;;;;;;;24.68;27.58;94405.34;828438;71;30345;-76
2021/05/03 14:46:15;;;;;;;4.37;3.37;;;;;;;24.25;28.43;94405.95;828408;71;29725;-75
2021/05/03 15:01:48;;;;;;;4.77;4.30;;;;;;;23.92;29.23;94402.33;834720;71;32804;-79
2021/05/03 15:16:38;;;;;;;4.50;3.90;;;;;;;23.62;29.33;94403.09;827854;71;33092;-76
2021/05/03 15:32:06;;;;;;;4.80;4.40;;;;;;;23.43;30.13;94394.75;828168;71;30341;-77
2021/05/03 15:46:13;;;;;;;4.90;4.40;;;;;;;23.19;30.26;94382.92;823390;71;31457;-79
2021/05/03 16:01:15;;;;;;;4.20;3.73;;;;;;;22.83;31.05;94403.23;833900;71;33116;-77
2021/05/03 16:16:12;;;;;;;9.90;9.10;;;;;;;22.47;42.44;94390.07;827109;71;30338;-77
2021/05/03 16:31:15;;;;;;;9.63;7.03;;;;;;;23.57;38.64;94410.92;835102;71;32650;-76
2021/05/03 16:46:33;;;;;;;6.30;5.77;;;;;;;24.09;38.72;94432.31;834380;71;32773;-76
2021/05/03 17:01:14;;;;;;;6.00;5.07;;;;;;;24.36;35.97;94431.47;834552;71;32712;-78
2021/05/03 17:16:18;;;;;;;5.53;5.03;;;;;;;23.61;35.63;94451.89;834071;71;32743;-81
2021/05/03 17:31:18;;;;;;;6.17;5.60;;;;;;;21.26;38.65;94472.14;834738;71;32675;-79
2021/05/03 17:46:20;;;;;;;6.45;5.90;;;;;;;20.20;41.44;94470.55;828377;71;33253;-80
2021/05/03 18:01:14;;;;;;;6.20;5.70;;;;;;;19.35;42.36;94482.69;827766;71;32701;-78
2021/05/03 18:16:18;;;;;;;8.58;5.75;;;;;;;18.78;43.84;94495.29;829314;71;32765;-78
2021/05/03 18:31:24;;;;;;;5.83;5.42;;;;;;;17.85;45.89;94510.69;828783;71;29479;-81
2021/05/03 18:46:10;;;;;;;6.55;6.03;;;;;;;17.39;46.88;94524.01;826044;71;29643;-77
2021/05/03 19:01:15;;;;;;;6.78;6.08;;;;;;;17.61;46.98;94534.76;827905;71;32709;-79
2021/05/03 19:16:16;;;;;;;10.70;9.70;;;;;;;21.33;47.73;94535.55;827247;71;32815;-76
2021/05/03 19:46:10;;;;;;;7.87;6.80;;;;;;;22.74;41.63;94550.66;825261;71;30635;-73
2021/05/03 20:16:08;;;;;;;7.67;7.00;;;;;;;19.18;43.80;94536.45;823373;71;29668;-73
2021/05/03 20:31:09;;;;;;;7.90;7.20;;;;;;;18.67;45.20;94582.70;828674;71;29273;-74
2021/05/03 20:46:15;;;;;;;7.62;6.87;;;;;;;18.16;46.20;94605.70;823159;71;33291;-74
2021/05/03 21:01:59;;;;;;;6.80;6.20;;;;;;;17.78;47.04;94616.06;831528;71;33174;-75
2021/05/03 21:16:09;;;;;;;6.62;6.12;;;;;;;17.57;47.36;94621.44;820096;71;30752;-74
2021/05/03 21:31:12;;;;;;;7.20;6.60;;;;;;;17.24;47.99;94626.00;820350;71;31719;-76
2021/05/03 21:46:15;;;;;;;7.03;6.42;;;;;;;17.07;49.30;94607.82;824600;71;32749;-73
2021/05/03 22:01:09;;;;;;;6.30;5.80;;;;;;;17.01;49.34;94621.82;811379;71;29745;-74
2021/05/03 22:16:14;;;;;;;7.95;6.33;;;;;;;16.87;49.50;94627.14;818686;71;29611;-74
2021/05/03 22:31:14;;;;;;;5.60;5.20;;;;;;;16.73;50.55;94634.02;823645;71;32672;-74
2021/05/03 23:31:16;;;;;;;5.00;4.60;;;;;;;15.86;52.09;94650.37;833927;71;32772;-74
2021/05/03 23:46:08;;;;;;;4.75;4.45;;;;;;;15.54;51.86;94643.95;831518;71;29778;-73
